Terminal Aerodrome Forecast
Issued by NWS Jacksonville, FL

Home | Current Version | Previous Version | Text Only | Print | Product List | Glossary On
Versions: 1 2 3 4 5 6 7 8 9 10 11 12 13
000
FTUS42 KJAX 040537
TAFJAX
TAF
KJAX 040537Z 0406/0506 05006KT P6SM SCT045 BKN100
     FM041500 10011G18KT P6SM SCT040 BKN080
     FM042300 14007KT P6SM SCT035 BKN050=

USA.gov is the U.S. government's official web portal to all federal, state and local government web resources and services.